createdAt,value
2022-11-08T00:02:08.724Z,97614.00
2022-11-08T00:04:35.316Z,97608.97
2022-11-08T00:07:20.136Z,97604.84
2022-11-08T00:10:05.172Z,97610.00
2022-11-08T00:12:50.003Z,97625.72
2022-11-08T00:15:16.530Z,97614.63
2022-11-08T00:17:43.086Z,97634.94
2022-11-08T00:20:10.216Z,97633.09
2022-11-08T00:22:36.767Z,97619.59
2022-11-08T00:25:03.439Z,97634.22
2022-11-08T00:27:29.828Z,97647.38
2022-11-08T00:29:56.581Z,97642.78
2022-11-08T00:32:25.772Z,97649.41
2022-11-08T00:34:52.787Z,97638.22
2022-11-08T00:37:20.987Z,97644.28
2022-11-08T00:39:47.384Z,97656.44
2022-11-08T00:42:14.576Z,97651.50
2022-11-08T00:44:41.066Z,97663.00
2022-11-08T00:47:07.456Z,97654.41
2022-11-08T00:49:33.960Z,97672.94
2022-11-08T00:52:00.619Z,97644.56
2022-11-08T00:54:27.057Z,97645.53
2022-11-08T00:56:53.570Z,97642.25
2022-11-08T00:59:19.952Z,97637.84
2022-11-08T01:01:47.320Z,97640.53
2022-11-08T01:04:17.189Z,97629.63
2022-11-08T01:06:44.273Z,97622.44
2022-11-08T01:09:11.315Z,97622.16
2022-11-08T01:11:39.383Z,97622.44
2022-11-08T01:14:06.077Z,97619.34
2022-11-08T01:16:33.888Z,97600.69
2022-11-08T01:19:01.427Z,97593.75
2022-11-08T01:21:28.331Z,97595.75
2022-11-08T01:23:55.322Z,97595.94
2022-11-08T01:26:24.424Z,97596.41
2022-11-08T01:28:51.198Z,97610.63
2022-11-08T01:31:20.646Z,97599.41
2022-11-08T01:33:51.243Z,97581.31
2022-11-08T01:36:21.314Z,97579.28
2022-11-08T01:38:48.368Z,97561.78
2022-11-08T01:41:16.312Z,97550.03
2022-11-08T01:43:47.605Z,97502.66
2022-11-08T01:46:20.290Z,97494.00
2022-11-08T01:49:29.705Z,97466.97
2022-11-08T01:52:31.596Z,97422.06
2022-11-08T01:55:06.825Z,97405.28
2022-11-08T01:57:44.037Z,97373.72
2022-11-08T02:00:12.684Z,97369.03
2022-11-08T02:02:42.727Z,97340.13
2022-11-08T02:05:26.880Z,97323.69
2022-11-08T02:07:55.280Z,97294.41
2022-11-08T02:10:24.935Z,97297.34
2022-11-08T02:12:53.497Z,97268.03
2022-11-08T02:15:22.151Z,97259.06
2022-11-08T02:17:49.025Z,97250.09
2022-11-08T02:20:15.490Z,97241.78
2022-11-08T02:22:51.952Z,97216.53
2022-11-08T02:25:19.008Z,97197.19
2022-11-08T02:27:45.682Z,97175.53
2022-11-08T02:30:12.193Z,97155.75
2022-11-08T02:32:40.290Z,97144.00
2022-11-08T02:35:11.823Z,97140.63
2022-11-08T02:37:38.509Z,97136.81
2022-11-08T02:40:05.568Z,97125.25
2022-11-08T02:42:31.982Z,97116.41
2022-11-08T02:44:58.378Z,97096.19
2022-11-08T02:47:24.937Z,97084.34
2022-11-08T02:49:51.501Z,97065.00
2022-11-08T02:52:17.934Z,97040.72
2022-11-08T02:54:44.369Z,97041.09
2022-11-08T02:57:10.757Z,96960.13
2022-11-08T02:59:37.199Z,96946.03
2022-11-08T03:02:03.861Z,96944.22
2022-11-08T03:04:30.400Z,96933.56
2022-11-08T03:06:56.825Z,97017.13
2022-11-08T03:09:23.268Z,97119.31
2022-11-08T03:11:49.657Z,97146.06
2022-11-08T03:14:16.063Z,97167.94
2022-11-08T03:16:42.464Z,97184.66
2022-11-08T03:19:08.914Z,97224.75
2022-11-08T03:21:36.682Z,97217.84
2022-11-08T03:24:04.033Z,97229.97
2022-11-08T03:26:32.267Z,97215.00
2022-11-08T03:28:58.694Z,97220.59
2022-11-08T03:31:25.107Z,97214.94
2022-11-08T03:33:51.572Z,97199.09
2022-11-08T03:36:17.985Z,97173.09
2022-11-08T03:38:44.382Z,97211.47
2022-11-08T03:41:10.824Z,97209.22
2022-11-08T03:43:37.292Z,97208.53
2022-11-08T03:46:03.707Z,97203.25
2022-11-08T03:48:30.063Z,97211.84
2022-11-08T03:50:56.507Z,97223.78
2022-11-08T03:53:22.885Z,97235.31
2022-11-08T03:55:49.304Z,97228.78
2022-11-08T03:58:15.960Z,97236.06
2022-11-08T04:00:42.707Z,97228.22
2022-11-08T04:03:09.467Z,97246.78
2022-11-08T04:05:35.928Z,97234.56
2022-11-08T04:08:04.652Z,97224.28
2022-11-08T04:10:31.089Z,97216.34
2022-11-08T04:13:19.040Z,97231.50
2022-11-08T04:15:47.333Z,97236.50
2022-11-08T04:18:32.505Z,97237.81
2022-11-08T04:21:19.071Z,97236.56
2022-11-08T04:23:47.112Z,97217.31
2022-11-08T04:26:13.606Z,97214.50
2022-11-08T04:28:41.392Z,97232.25
2022-11-08T04:31:13.700Z,97228.06
2022-11-08T04:33:40.704Z,97228.47
2022-11-08T04:36:10.634Z,97226.38
2022-11-08T04:38:37.346Z,97222.84
2022-11-08T04:41:06.459Z,97217.00
2022-11-08T04:43:34.013Z,97223.91
2022-11-08T04:46:09.191Z,97223.09
2022-11-08T04:48:35.909Z,97223.78
2022-11-08T04:51:07.047Z,97215.47
2022-11-08T04:53:33.587Z,97209.75
2022-11-08T04:56:04.560Z,97217.16
2022-11-08T04:58:55.746Z,97222.38
2022-11-08T05:01:25.041Z,97200.16
2022-11-08T05:03:53.305Z,97199.63
2022-11-08T05:06:22.575Z,97186.38
2022-11-08T05:08:49.551Z,97179.69
2022-11-08T05:11:19.100Z,97138.44
2022-11-08T05:13:46.668Z,97170.81
2022-11-08T05:16:16.065Z,97148.91
2022-11-08T05:18:42.883Z,97148.97
2022-11-08T05:21:30.618Z,97138.97
2022-11-08T05:23:57.996Z,97130.03
2022-11-08T05:26:24.677Z,97124.66
2022-11-08T05:28:51.114Z,97112.47
2022-11-08T05:31:17.565Z,97091.00
2022-11-08T05:33:44.841Z,97101.78
2022-11-08T05:36:13.585Z,97094.59
2022-11-08T05:38:40.304Z,97090.31
2022-11-08T05:41:18.587Z,97089.03
2022-11-08T05:43:47.318Z,97093.47
2022-11-08T05:46:14.423Z,97077.91
2022-11-08T05:48:42.835Z,97082.16
2022-11-08T05:51:10.443Z,97066.72
2022-11-08T05:53:37.013Z,97061.28
2022-11-08T05:56:04.579Z,97050.59
2022-11-08T05:58:32.794Z,97047.00
2022-11-08T06:01:07.351Z,97046.03
2022-11-08T06:03:34.667Z,97036.16
2022-11-08T06:06:03.067Z,97027.47
2022-11-08T06:08:29.507Z,97035.38
2022-11-08T06:11:05.368Z,97020.53
2022-11-08T06:13:34.192Z,97020.44
2022-11-08T06:16:02.234Z,97017.47
2022-11-08T06:18:29.921Z,97009.09
2022-11-08T06:20:58.457Z,97009.59
2022-11-08T06:23:25.736Z,96985.41
2022-11-08T06:25:52.164Z,96995.94
2022-11-08T06:28:18.732Z,96984.44
2022-11-08T06:30:46.712Z,96981.47
2022-11-08T06:33:13.576Z,96986.72
2022-11-08T06:35:40.030Z,96979.31
2022-11-08T06:38:09.262Z,96967.19
2022-11-08T06:40:40.099Z,96980.66
2022-11-08T06:43:06.750Z,96990.88
2022-11-08T06:45:33.395Z,96989.22
2022-11-08T06:48:02.055Z,96982.97
2022-11-08T06:50:30.623Z,96976.53
2022-11-08T06:53:05.653Z,96965.16
2022-11-08T06:55:33.832Z,96962.97
2022-11-08T06:58:00.421Z,96982.72
2022-11-08T07:00:27.716Z,96984.19
2022-11-08T07:03:00.073Z,96983.16
2022-11-08T07:05:27.807Z,96987.44
2022-11-08T07:07:54.520Z,96995.78
2022-11-08T07:10:23.328Z,96991.38
2022-11-08T07:13:05.252Z,96989.91
2022-11-08T07:15:33.328Z,96998.16
2022-11-08T07:18:05.596Z,97008.09
2022-11-08T07:20:32.808Z,96999.13
2022-11-08T07:22:59.902Z,96995.88
2022-11-08T07:25:28.101Z,97002.91
2022-11-08T07:27:58.868Z,96999.91
2022-11-08T07:30:25.851Z,97020.66
2022-11-08T07:32:53.136Z,97024.06
2022-11-08T07:35:19.557Z,97047.19
2022-11-08T07:37:46.083Z,97045.97
2022-11-08T07:40:13.339Z,97008.44
2022-11-08T07:43:05.154Z,97055.31
2022-11-08T07:45:27.741Z,97055.13
2022-11-08T07:47:58.928Z,97013.25
2022-11-08T07:50:25.764Z,97047.22
2022-11-08T07:52:52.991Z,97083.44
2022-11-08T07:55:20.077Z,97067.53
2022-11-08T07:57:46.743Z,97089.00
2022-11-08T08:00:14.533Z,97082.13
2022-11-08T08:02:41.046Z,97095.28
2022-11-08T08:05:07.924Z,97097.81
2022-11-08T08:07:35.548Z,97118.91
2022-11-08T08:10:02.225Z,97132.53
2022-11-08T08:12:28.675Z,97115.22
2022-11-08T08:14:55.061Z,97095.31
2022-11-08T08:17:21.468Z,97090.91
2022-11-08T08:19:47.922Z,97105.03
2022-11-08T08:22:14.331Z,97104.53
2022-11-08T08:24:40.831Z,97115.06
2022-11-08T08:27:07.564Z,97085.53
2022-11-08T08:29:34.009Z,97082.88
2022-11-08T08:32:00.387Z,97005.06
2022-11-08T08:34:26.809Z,97045.13
2022-11-08T08:36:53.362Z,97129.59
2022-11-08T08:39:19.768Z,97196.63
2022-11-08T08:41:46.192Z,97316.34
2022-11-08T08:44:12.807Z,97474.44
2022-11-08T08:46:39.209Z,97709.38
2022-11-08T08:49:05.655Z,97801.28
2022-11-08T08:51:32.052Z,97871.84
2022-11-08T08:53:58.608Z,97897.66
2022-11-08T08:56:25.025Z,97938.66
2022-11-08T09:01:38.199Z,97976.75
2022-11-08T09:04:05.061Z,98050.66
2022-11-08T09:06:31.456Z,98048.06
2022-11-08T09:08:58.322Z,98092.16
2022-11-08T09:11:24.737Z,98151.84
2022-11-08T09:13:51.164Z,98119.38
2022-11-08T09:16:17.652Z,98166.03
2022-11-08T09:18:44.152Z,98097.22
2022-11-08T09:21:10.609Z,98139.34
2022-11-08T09:23:37.028Z,98122.66
2022-11-08T09:26:05.401Z,98127.53
2022-11-08T09:28:33.648Z,98135.69
2022-11-08T09:31:05.079Z,98173.44
2022-11-08T09:33:31.858Z,98200.31
2022-11-08T09:36:02.726Z,98156.94
2022-11-08T09:38:29.645Z,98205.22
2022-11-08T09:41:17.376Z,98211.16
2022-11-08T09:44:06.027Z,98207.38
2022-11-08T09:46:52.806Z,98254.16
2022-11-08T09:49:28.832Z,98278.31
2022-11-08T09:51:55.411Z,98243.72
2022-11-08T09:54:48.031Z,98273.63
2022-11-08T09:57:29.322Z,98230.63
2022-11-08T10:00:04.535Z,98219.31
2022-11-08T10:02:31.959Z,98301.13
2022-11-08T10:05:02.572Z,98243.09
2022-11-08T10:07:41.444Z,98267.09
2022-11-08T10:10:17.085Z,98287.91
2022-11-08T10:12:49.880Z,98295.78
2022-11-08T10:15:30.537Z,98332.31
2022-11-08T10:18:18.093Z,98278.16
2022-11-08T10:21:08.365Z,98339.81
2022-11-08T10:23:41.380Z,98322.56
2022-11-08T10:26:21.607Z,98350.31
2022-11-08T10:29:00.802Z,98337.72
2022-11-08T10:31:30.628Z,98360.81
2022-11-08T10:33:59.244Z,98367.31
2022-11-08T10:36:25.638Z,98393.38
2022-11-08T10:38:58.084Z,98383.59
2022-11-08T10:41:41.329Z,98411.91
2022-11-08T10:44:12.876Z,98424.78
2022-11-08T10:46:45.480Z,98449.06
2022-11-08T10:49:19.876Z,98613.97
2022-11-08T10:51:49.500Z,98618.41
2022-11-08T10:54:53.084Z,98622.25
2022-11-08T10:57:25.783Z,98632.53
2022-11-08T10:59:53.246Z,98637.38
2022-11-08T11:02:29.354Z,98603.34
2022-11-08T11:05:15.885Z,98619.97
2022-11-08T11:08:00.652Z,98620.00
2022-11-08T11:10:29.831Z,98613.78
2022-11-08T11:13:22.174Z,98607.28
2022-11-08T11:15:59.620Z,98601.38
2022-11-08T11:18:38.266Z,98611.50
2022-11-08T11:21:22.752Z,98596.41
2022-11-08T11:23:55.063Z,98603.69
2022-11-08T11:26:30.236Z,98607.09
2022-11-08T11:29:05.892Z,98605.06
2022-11-08T11:31:34.961Z,98601.97
2022-11-08T11:34:27.082Z,98604.88
2022-11-08T11:36:58.288Z,98598.50
2022-11-08T11:39:35.362Z,98588.63
2022-11-08T11:42:39.390Z,98587.75
2022-11-08T11:45:05.748Z,98597.44
2022-11-08T11:47:41.209Z,98555.56
2022-11-08T11:50:20.535Z,98605.81
2022-11-08T11:52:47.239Z,98592.78
2022-11-08T11:55:17.641Z,98597.50
2022-11-08T11:58:06.207Z,98597.50
2022-11-08T12:00:37.303Z,98573.50
2022-11-08T12:03:09.626Z,98632.38
2022-11-08T12:05:45.780Z,98609.00
2022-11-08T12:08:28.385Z,98606.31
2022-11-08T12:11:04.225Z,98586.84
2022-11-08T12:14:04.472Z,98588.84
2022-11-08T12:17:01.505Z,98592.53
2022-11-08T12:20:07.304Z,98578.25
2022-11-08T12:22:57.841Z,98584.72
2022-11-08T12:25:58.628Z,98596.94
2022-11-08T12:28:42.190Z,98576.31
2022-11-08T12:31:25.753Z,98577.34
2022-11-08T12:34:00.790Z,98585.00
2022-11-08T12:36:36.857Z,98586.41
2022-11-08T12:39:03.189Z,98577.06
2022-11-08T12:41:42.374Z,98563.75
2022-11-08T12:44:43.004Z,98560.94
2022-11-08T12:47:21.610Z,98571.94
2022-11-08T12:50:12.235Z,98553.16
2022-11-08T12:53:18.071Z,98569.09
2022-11-08T12:55:48.360Z,98551.63
2022-11-08T12:58:47.127Z,98556.28
2022-11-08T13:01:20.190Z,98569.72
2022-11-08T13:04:06.282Z,98537.84
2022-11-08T13:06:45.207Z,98552.97
2022-11-08T13:09:23.796Z,98563.34
2022-11-08T13:12:10.512Z,98543.34
2022-11-08T13:14:41.154Z,98545.06
2022-11-08T13:17:26.166Z,98538.44
2022-11-08T13:19:54.151Z,98530.56
2022-11-08T13:22:29.803Z,98551.94
2022-11-08T13:25:07.340Z,98551.50
2022-11-08T13:27:44.685Z,98537.66
2022-11-08T13:30:11.051Z,98555.56
2022-11-08T13:32:37.409Z,98552.16
2022-11-08T13:35:36.725Z,98543.16
2022-11-08T13:38:14.630Z,98539.19
2022-11-08T13:41:11.945Z,98543.41
2022-11-08T13:43:38.924Z,98539.66
2022-11-08T13:46:22.754Z,98531.72
2022-11-08T13:48:58.383Z,98537.16
2022-11-08T13:51:27.440Z,98516.00
2022-11-08T13:54:00.995Z,98531.09
2022-11-08T13:56:47.301Z,98530.63
2022-11-08T13:59:32.311Z,98521.44
2022-11-08T14:01:59.387Z,98535.63
2022-11-08T14:04:40.167Z,98518.78
2022-11-08T14:07:31.320Z,98530.09
2022-11-08T14:10:16.372Z,98496.28
2022-11-08T14:13:06.195Z,98524.56
2022-11-08T14:15:46.513Z,98525.41
2022-11-08T14:18:18.909Z,98530.28
2022-11-08T14:20:47.023Z,98527.06
2022-11-08T14:23:19.670Z,98517.94
2022-11-08T14:26:00.355Z,98513.03
2022-11-08T14:28:30.148Z,98503.22
2022-11-08T14:30:57.916Z,98508.13
2022-11-08T14:33:26.938Z,98510.38
2022-11-08T14:35:56.166Z,98512.59
2022-11-08T14:38:23.128Z,98517.28
2022-11-08T14:40:53.263Z,98511.97
2022-11-08T14:43:21.966Z,98507.69
2022-11-08T14:45:49.554Z,98502.91
2022-11-08T14:48:34.148Z,98504.72
2022-11-08T14:51:03.283Z,98499.28
2022-11-08T14:53:44.287Z,98506.13
2022-11-08T14:56:26.083Z,98488.38
2022-11-08T14:58:54.295Z,98469.13
2022-11-08T15:01:23.948Z,98482.91
2022-11-08T15:03:57.098Z,98443.75
2022-11-08T15:06:32.540Z,98477.59
2022-11-08T15:09:00.740Z,98462.69
2022-11-08T15:11:42.413Z,98453.41
2022-11-08T15:14:16.924Z,98466.38
2022-11-08T15:16:52.835Z,98449.91
2022-11-08T15:19:29.630Z,98437.50
2022-11-08T15:22:00.441Z,98419.53
2022-11-08T15:24:39.211Z,98403.91
2022-11-08T15:27:11.668Z,98410.41
2022-11-08T15:30:00.315Z,98409.56
2022-11-08T15:32:28.291Z,98414.56
2022-11-08T15:34:56.780Z,98402.13
2022-11-08T15:37:31.267Z,98406.28
2022-11-08T15:40:01.825Z,98387.66
2022-11-08T15:42:28.460Z,98361.81
2022-11-08T15:45:05.060Z,98373.06
2022-11-08T15:47:43.652Z,98357.28
2022-11-08T15:50:20.607Z,98358.16
2022-11-08T15:52:53.324Z,98337.88
2022-11-08T15:55:22.861Z,98340.19
2022-11-08T15:57:50.485Z,98340.53
2022-11-08T16:00:22.303Z,98327.53
2022-11-08T16:02:48.923Z,98331.16
2022-11-08T16:05:16.972Z,98332.97
2022-11-08T16:07:44.803Z,98330.75
2022-11-08T16:10:13.026Z,98327.53
2022-11-08T16:12:44.913Z,98334.16
2022-11-08T16:15:14.186Z,98316.53
2022-11-08T16:17:40.816Z,98319.63
2022-11-08T16:20:18.388Z,98314.91
2022-11-08T16:22:45.658Z,98306.88
2022-11-08T16:25:12.089Z,98316.84
2022-11-08T16:27:38.671Z,98316.06
2022-11-08T16:30:24.093Z,98323.97
2022-11-08T16:32:50.642Z,98331.66
2022-11-08T16:35:17.270Z,98324.47
2022-11-08T16:37:44.824Z,98333.25
2022-11-08T16:40:18.128Z,98337.91
2022-11-08T16:42:46.726Z,98341.59
2022-11-08T16:45:13.699Z,98335.38
2022-11-08T16:47:46.557Z,98352.47
2022-11-08T16:50:18.937Z,98335.44
2022-11-08T16:52:46.152Z,98340.34
2022-11-08T16:55:17.626Z,98336.06
2022-11-08T16:57:44.897Z,98337.69
2022-11-08T17:00:15.154Z,98348.88
2022-11-08T17:02:46.700Z,98310.63
2022-11-08T17:05:22.628Z,98358.75
2022-11-08T17:07:51.200Z,98370.44
2022-11-08T17:10:24.217Z,98374.28
2022-11-08T17:12:51.077Z,98368.22
2022-11-08T17:15:20.845Z,98377.31
2022-11-08T17:17:48.179Z,98375.16
2022-11-08T17:20:18.617Z,98373.47
2022-11-08T17:22:45.878Z,98385.31
2022-11-08T17:25:15.183Z,98384.78
2022-11-08T17:27:42.280Z,98366.28
2022-11-08T17:30:10.928Z,98381.16
2022-11-08T17:32:37.765Z,98381.03
2022-11-08T17:35:06.543Z,98364.78
2022-11-08T17:37:33.903Z,98383.34
2022-11-08T17:40:01.920Z,98379.75
2022-11-08T17:42:31.703Z,98374.13
2022-11-08T17:45:00.444Z,98313.06
2022-11-08T17:47:28.751Z,98381.94
2022-11-08T17:49:55.200Z,98389.78
2022-11-08T17:52:21.837Z,98369.97
2022-11-08T17:54:52.824Z,98365.72
2022-11-08T17:57:19.643Z,98383.16
2022-11-08T17:59:48.212Z,98384.06
2022-11-08T18:02:15.220Z,98359.25
2022-11-08T18:04:41.762Z,98363.59
2022-11-08T18:07:08.409Z,98377.81
2022-11-08T18:09:34.917Z,98399.06
2022-11-08T18:12:01.394Z,98352.25
2022-11-08T18:14:29.037Z,98385.56
2022-11-08T18:16:56.569Z,98395.91
2022-11-08T18:19:23.233Z,98396.47
2022-11-08T18:21:49.744Z,98396.75
2022-11-08T18:24:16.629Z,98395.06
2022-11-08T18:26:43.171Z,98395.66
2022-11-08T18:29:09.594Z,98392.81
2022-11-08T18:31:36.796Z,98398.94
2022-11-08T18:34:03.296Z,98407.56
2022-11-08T18:36:31.158Z,98414.00
2022-11-08T18:39:01.669Z,98409.00
2022-11-08T18:41:30.953Z,98398.81
2022-11-08T18:43:59.296Z,98373.38
2022-11-08T18:46:27.529Z,98407.28
2022-11-08T18:48:54.296Z,98401.78
2022-11-08T18:51:22.069Z,98395.88
2022-11-08T18:53:49.142Z,98423.31
2022-11-08T18:56:16.186Z,98409.69
2022-11-08T18:58:44.763Z,98415.63
2022-11-08T19:01:11.616Z,98419.03
2022-11-08T19:03:38.707Z,98417.00
2022-11-08T19:06:05.517Z,98419.66
2022-11-08T19:08:32.968Z,98426.59
2022-11-08T19:11:02.986Z,98430.66
2022-11-08T19:13:31.650Z,98411.72
2022-11-08T19:16:13.153Z,98429.16
2022-11-08T19:18:40.178Z,98428.16
2022-11-08T19:21:09.723Z,98429.34
2022-11-08T19:23:38.221Z,98419.91
2022-11-08T19:26:13.708Z,98427.81
2022-11-08T19:28:51.048Z,98420.88
2022-11-08T19:31:19.243Z,98430.53
2022-11-08T19:33:47.519Z,98428.22
2022-11-08T19:36:16.568Z,98424.28
2022-11-08T19:38:43.782Z,98436.22
2022-11-08T19:41:15.822Z,98430.91
2022-11-08T19:43:43.337Z,98425.56
2022-11-08T19:46:15.456Z,98431.81
2022-11-08T19:48:43.863Z,98433.25
2022-11-08T19:51:16.322Z,98435.22
2022-11-08T19:53:43.798Z,98439.53
2022-11-08T19:56:14.136Z,98445.59
2022-11-08T19:58:41.025Z,98446.94
2022-11-08T20:01:10.046Z,98449.25
2022-11-08T20:03:36.544Z,98420.31
2022-11-08T20:06:03.408Z,98447.22
2022-11-08T20:08:31.373Z,98445.59
2022-11-08T20:10:58.752Z,98446.63
2022-11-08T20:13:28.018Z,98435.28
2022-11-08T20:15:54.411Z,98450.91
2022-11-08T20:18:21.221Z,98428.13
2022-11-08T20:20:47.788Z,98440.63
2022-11-08T20:23:16.489Z,98443.91
2022-11-08T20:25:43.032Z,98436.97
2022-11-08T20:28:09.541Z,98439.59
2022-11-08T20:30:36.112Z,98440.34
2022-11-08T20:33:02.537Z,98451.66
2022-11-08T20:35:32.301Z,98435.19
2022-11-08T20:37:58.848Z,98456.00
2022-11-08T20:40:25.321Z,98458.59
2022-11-08T20:42:51.963Z,98458.78
2022-11-08T20:45:18.525Z,98457.94
2022-11-08T20:47:45.000Z,98440.94
2022-11-08T20:50:11.749Z,98460.25
2022-11-08T20:52:38.228Z,98450.34
2022-11-08T20:55:05.251Z,98447.19
2022-11-08T20:57:31.904Z,98453.47
2022-11-08T21:00:06.951Z,98442.22
2022-11-08T21:02:39.163Z,98430.81
2022-11-08T21:05:06.118Z,98430.66
2022-11-08T21:08:01.869Z,98428.97
2022-11-08T21:10:41.430Z,98415.47
2022-11-08T21:13:05.754Z,98423.25
2022-11-08T21:15:32.279Z,98414.34
2022-11-08T21:17:58.666Z,98430.75
2022-11-08T21:20:26.765Z,98406.97
2022-11-08T21:22:53.377Z,98420.81
2022-11-08T21:25:21.334Z,98431.44
2022-11-08T21:27:47.696Z,98433.13
2022-11-08T21:30:14.151Z,98445.13
2022-11-08T21:32:40.557Z,98430.84
2022-11-08T21:35:07.226Z,98430.16
2022-11-08T21:37:33.802Z,98421.25
2022-11-08T21:40:00.208Z,98424.16
2022-11-08T21:42:26.572Z,98417.59
2022-11-08T21:44:53.204Z,98427.91
2022-11-08T21:47:19.583Z,98442.81
2022-11-08T21:49:45.984Z,98440.31
2022-11-08T21:52:12.539Z,98429.31
2022-11-08T21:54:39.195Z,98420.56
2022-11-08T21:57:05.606Z,98439.56
2022-11-08T21:59:32.045Z,98450.78
2022-11-08T22:01:58.479Z,98449.44
2022-11-08T22:04:24.885Z,98441.53
2022-11-08T22:06:51.501Z,98445.63
2022-11-08T22:09:18.043Z,98436.16
2022-11-08T22:11:45.152Z,98431.97
2022-11-08T22:14:12.023Z,98424.69
2022-11-08T22:16:38.539Z,98408.13
2022-11-08T22:19:05.877Z,98370.66
2022-11-08T22:21:39.798Z,98394.25
2022-11-08T22:24:10.745Z,98380.94
2022-11-08T22:26:37.954Z,98403.34
2022-11-08T22:29:04.572Z,98394.88
2022-11-08T22:31:31.238Z,98403.84
2022-11-08T22:33:57.949Z,98394.88
2022-11-08T22:36:24.436Z,98351.03
2022-11-08T22:38:50.883Z,98377.59
2022-11-08T22:41:19.316Z,98357.59
2022-11-08T22:43:46.631Z,98375.13
2022-11-08T22:46:13.858Z,98367.34
2022-11-08T22:48:40.896Z,98379.63
2022-11-08T22:51:08.254Z,98372.13
2022-11-08T22:53:34.910Z,98371.84
2022-11-08T22:56:06.893Z,98385.53
2022-11-08T22:58:36.673Z,98371.94
2022-11-08T23:01:03.718Z,98356.34
2022-11-08T23:03:30.123Z,98343.78
2022-11-08T23:05:57.612Z,98353.81
2022-11-08T23:08:26.493Z,98349.50
2022-11-08T23:11:11.927Z,98340.78
2022-11-08T23:13:57.774Z,98331.88
2022-11-08T23:16:37.584Z,98335.03
2022-11-08T23:19:33.824Z,98333.78
2022-11-08T23:22:19.624Z,98346.34
2022-11-08T23:24:46.064Z,98341.38
2022-11-08T23:27:33.572Z,98335.75
2022-11-08T23:30:18.651Z,98295.63
2022-11-08T23:32:47.920Z,98307.09
2022-11-08T23:35:15.152Z,98320.09
2022-11-08T23:37:42.068Z,98332.63
2022-11-08T23:40:29.328Z,98343.25
2022-11-08T23:43:40.484Z,98337.94
2022-11-08T23:46:12.210Z,98314.28
2022-11-08T23:48:40.327Z,98314.88
2022-11-08T23:51:07.624Z,98302.13
2022-11-08T23:53:36.573Z,98279.59
2022-11-08T23:56:03.715Z,98243.91
2022-11-08T23:58:30.158Z,98211.19
